Time;durP1;ratioP1;P1;durP2;ratioP2;P2;SDS_P1;SDS_P2;PMS_P1;PMS_P2;Temp;Humidity;BMP_temperature;BMP_pressure;BME280_temperature;BME280_humidity;BME280_pressure;Samples;Min_cycle;Max_cycle;Signal;HPM_P1;HPM_P2
2023/10/08 00:02:22;;;;;;;1.00;0.90;;;13.10;99.90;;;;;;6211530;22;20007;-82
2023/10/08 00:04:50;;;;;;;1.20;1.10;;;13.10;99.90;;;;;;6210894;22;20102;-82
2023/10/08 00:07:21;;;;;;;1.42;1.17;;;13.10;99.90;;;;;;6235536;22;20468;-82
2023/10/08 00:09:53;;;;;;;1.70;1.30;;;13.20;99.90;;;;;;6235794;22;20018;-82
2023/10/08 00:12:20;;;;;;;2.40;1.20;;;13.20;99.90;;;;;;6209773;22;20094;-82
2023/10/08 00:14:49;;;;;;;1.30;1.15;;;13.20;99.90;;;;;;6211435;22;20453;-82
2023/10/08 00:17:17;;;;;;;1.92;1.20;;;13.30;99.90;;;;;;6236228;22;20081;-81
2023/10/08 00:19:43;;;;;;;1.48;1.25;;;13.30;99.90;;;;;;6236192;22;20003;-82
2023/10/08 00:22:13;;;;;;;1.05;0.95;;;13.20;99.90;;;;;;6210564;22;20477;-81
2023/10/08 00:24:41;;;;;;;2.45;1.10;;;13.10;99.90;;;;;;6210526;22;20045;-81
2023/10/08 00:27:10;;;;;;;1.50;1.02;;;13.00;99.90;;;;;;6234974;22;20016;-82
2023/10/08 00:29:40;;;;;;;1.20;1.00;;;13.10;99.90;;;;;;6210739;22;20019;-82
2023/10/08 00:32:17;;;;;;;2.50;1.10;;;13.10;99.90;;;;;;6208944;22;20384;-82
2023/10/08 00:34:43;;;;;;;1.55;0.70;;;13.00;99.90;;;;;;6209165;22;20012;-83
2023/10/08 00:37:14;;;;;;;1.98;0.60;;;13.10;99.90;;;;;;6207567;22;20111;-82
2023/10/08 00:39:40;;;;;;;1.25;0.70;;;13.10;99.90;;;;;;6233965;22;20360;-82
2023/10/08 00:42:07;;;;;;;0.75;0.45;;;13.10;99.90;;;;;;6207023;22;20321;-82
2023/10/08 00:44:51;;;;;;;2.22;0.40;;;13.00;99.90;;;;;;6209465;22;20019;-83
2023/10/08 00:47:18;;;;;;;1.70;0.52;;;12.90;99.90;;;;;;6208363;22;20025;-82
2023/10/08 00:55:08;;;;;;;0.70;0.47;;;13.10;99.90;;;;;;6236553;22;20043;-83
2023/10/08 00:57:36;;;;;;;0.75;0.50;;;13.10;99.90;;;;;;6209274;22;20019;-83
2023/10/08 01:00:05;;;;;;;1.38;0.60;;;13.10;99.90;;;;;;6236080;22;20046;-83
2023/10/08 01:02:48;;;;;;;1.52;0.70;;;13.10;99.90;;;;;;6210466;22;20015;-83
2023/10/08 01:05:20;;;;;;;2.08;0.77;;;13.10;99.90;;;;;;6237504;22;20069;-83
2023/10/08 01:07:53;;;;;;;1.80;0.60;;;13.10;99.90;;;;;;6237135;22;20058;-83
2023/10/08 01:10:24;;;;;;;0.85;0.38;;;13.10;99.90;;;;;;6212952;22;20377;-83
2023/10/08 01:13:07;;;;;;;1.27;0.70;;;13.10;99.90;;;;;;6210966;22;20065;-82
2023/10/08 01:15:35;;;;;;;3.67;0.65;;;13.00;99.90;;;;;;6211643;22;20020;-83
2023/10/08 01:18:14;;;;;;;1.33;0.70;;;13.00;99.90;;;;;;6210973;22;20299;-82
2023/10/08 01:23:16;;;;;;;2.67;0.75;;;13.10;99.90;;;;;;6235418;22;20019;-83
2023/10/08 01:25:50;;;;;;;0.68;0.60;;;13.10;99.90;;;;;;6212115;22;20022;-82
2023/10/08 01:28:25;;;;;;;2.28;0.77;;;13.00;99.90;;;;;;6236109;22;20098;-82
2023/10/08 01:30:57;;;;;;;0.52;0.50;;;13.00;99.90;;;;;;6234815;22;20012;-83
2023/10/08 01:33:27;;;;;;;2.25;0.90;;;12.90;99.90;;;;;;6208796;22;20023;-83
2023/10/08 01:35:53;;;;;;;1.45;0.70;;;13.00;99.90;;;;;;6236095;22;20020;-83
2023/10/08 01:38:23;;;;;;;1.40;0.82;;;13.00;99.90;;;;;;6207990;22;20012;-82
2023/10/08 01:40:52;;;;;;;1.52;0.90;;;13.00;99.90;;;;;;6235362;22;20011;-83
2023/10/08 01:43:20;;;;;;;2.55;1.00;;;13.00;99.90;;;;;;6208557;22;20420;-82
2023/10/08 01:45:50;;;;;;;3.58;1.05;;;13.00;99.90;;;;;;6209363;22;20012;-82
2023/10/08 01:48:20;;;;;;;1.10;0.70;;;13.00;99.90;;;;;;6209204;22;20027;-82
2023/10/08 01:50:49;;;;;;;1.23;0.63;;;12.90;99.90;;;;;;6210075;22;20526;-82
2023/10/08 01:53:16;;;;;;;1.88;0.73;;;12.90;99.90;;;;;;6233415;22;20077;-82
2023/10/08 01:55:47;;;;;;;1.77;1.00;;;12.90;99.90;;;;;;6211657;22;20015;-82
2023/10/08 01:58:16;;;;;;;1.27;0.70;;;13.00;99.90;;;;;;6236381;22;20068;-83
2023/10/08 02:00:48;;;;;;;3.75;0.88;;;12.90;99.90;;;;;;6236270;22;20515;-82
2023/10/08 02:03:16;;;;;;;1.95;1.08;;;13.00;99.90;;;;;;6209691;22;20167;-82
2023/10/08 02:05:42;;;;;;;1.15;0.85;;;13.00;99.90;;;;;;6237432;22;20073;-82
2023/10/08 02:08:09;;;;;;;1.08;0.80;;;13.00;99.90;;;;;;6210695;22;20026;-83
2023/10/08 02:10:38;;;;;;;1.13;1.00;;;13.00;99.90;;;;;;6238039;22;20021;-82
2023/10/08 02:13:04;;;;;;;2.75;1.05;;;13.00;99.90;;;;;;6236339;22;20016;-82
2023/10/08 02:15:30;;;;;;;1.48;1.30;;;13.00;99.90;;;;;;6211645;22;20114;-83
2023/10/08 02:17:56;;;;;;;3.40;1.30;;;13.00;99.90;;;;;;6237224;22;20445;-83
2023/10/08 02:20:22;;;;;;;2.55;1.20;;;12.90;99.90;;;;;;6212665;22;20449;-82
2023/10/08 02:22:49;;;;;;;2.72;1.33;;;12.90;99.90;;;;;;6210562;22;20126;-83
2023/10/08 02:25:18;;;;;;;2.92;0.95;;;12.90;99.90;;;;;;6212356;22;20012;-83
2023/10/08 02:27:43;;;;;;;1.45;1.20;;;12.90;99.90;;;;;;6235353;22;20016;-83
2023/10/08 02:30:12;;;;;;;2.85;1.00;;;12.80;99.90;;;;;;6237771;22;20607;-82
2023/10/08 02:32:39;;;;;;;1.05;0.95;;;12.90;99.90;;;;;;6235759;22;20092;-82
2023/10/08 02:35:05;;;;;;;3.20;1.30;;;12.90;99.90;;;;;;6236967;22;20023;-82
2023/10/08 02:37:31;;;;;;;5.53;1.30;;;13.00;99.90;;;;;;6234705;22;20341;-82
2023/10/08 02:39:57;;;;;;;2.15;1.17;;;12.90;99.90;;;;;;6210506;22;20073;-82
2023/10/08 02:42:24;;;;;;;2.63;1.40;;;12.90;99.90;;;;;;6209804;22;20081;-82
2023/10/08 02:44:51;;;;;;;2.85;1.38;;;12.90;99.90;;;;;;6212617;22;20073;-82
2023/10/08 02:47:20;;;;;;;2.40;1.17;;;12.90;99.90;;;;;;6211251;22;20043;-83
2023/10/08 02:49:48;;;;;;;3.60;1.40;;;12.90;99.90;;;;;;6212190;22;20026;-82
2023/10/08 02:52:15;;;;;;;3.75;1.60;;;12.80;99.90;;;;;;6210261;22;20347;-82
2023/10/08 02:54:41;;;;;;;2.53;1.60;;;12.90;99.90;;;;;;6210982;22;20472;-82
2023/10/08 02:57:14;;;;;;;1.77;1.52;;;12.90;99.90;;;;;;6236386;22;20016;-83
2023/10/08 02:59:40;;;;;;;1.70;1.42;;;12.90;99.90;;;;;;6211080;22;20008;-82
2023/10/08 03:02:18;;;;;;;1.90;1.30;;;12.90;99.90;;;;;;6235404;22;20023;-82
2023/10/08 03:04:45;;;;;;;1.58;1.20;;;12.90;99.90;;;;;;6236971;22;20102;-82
2023/10/08 03:07:21;;;;;;;1.65;1.48;;;12.90;99.90;;;;;;6210151;22;20047;-83
2023/10/08 03:10:03;;;;;;;2.85;1.45;;;12.90;99.90;;;;;;6211218;22;20019;-82
2023/10/08 03:12:31;;;;;;;2.10;1.90;;;12.90;99.90;;;;;;6236192;22;20023;-82
2023/10/08 03:15:04;;;;;;;1.95;1.40;;;12.90;99.90;;;;;;6211202;22;20096;-83
2023/10/08 03:17:30;;;;;;;2.67;1.63;;;12.90;99.90;;;;;;6236628;22;20507;-83
2023/10/08 03:20:27;;;;;;;2.83;1.65;;;12.90;99.90;;;;;;6236511;22;20041;-83
2023/10/08 03:22:49;;;;;;;2.42;1.52;;;12.90;99.90;;;;;;6234783;22;20102;-82
2023/10/08 03:25:17;;;;;;;2.38;1.60;;;12.90;99.90;;;;;;6235371;22;20020;-82
2023/10/08 03:27:43;;;;;;;3.53;1.90;;;12.90;99.90;;;;;;6235819;22;20018;-83
2023/10/08 03:30:14;;;;;;;2.33;1.77;;;12.80;99.90;;;;;;6235679;22;20315;-83
2023/10/08 03:32:42;;;;;;;3.80;1.63;;;12.90;99.90;;;;;;6210792;22;20019;-83
2023/10/08 03:35:12;;;;;;;2.67;1.85;;;12.90;99.90;;;;;;6236563;22;20061;-83
2023/10/08 03:37:45;;;;;;;4.63;1.80;;;12.90;99.90;;;;;;6209953;22;20472;-82
2023/10/08 03:40:42;;;;;;;2.75;1.70;;;12.80;99.90;;;;;;6236176;22;20018;-83
2023/10/08 03:43:15;;;;;;;2.30;1.75;;;12.90;99.90;;;;;;6210317;22;20019;-82
2023/10/08 03:45:59;;;;;;;3.25;1.90;;;12.90;99.90;;;;;;6237056;22;20467;-82
2023/10/08 03:48:25;;;;;;;5.38;1.92;;;12.80;99.90;;;;;;6210496;22;20066;-82
2023/10/08 03:51:00;;;;;;;2.08;1.80;;;12.70;99.90;;;;;;6211849;22;20444;-82
2023/10/08 03:53:32;;;;;;;3.47;2.05;;;12.70;99.90;;;;;;6235009;22;20128;-82
2023/10/08 03:56:00;;;;;;;3.80;1.90;;;12.70;99.90;;;;;;6237490;22;20111;-82
2023/10/08 03:58:30;;;;;;;3.55;2.33;;;12.80;99.90;;;;;;6210470;22;20422;-82
2023/10/08 04:01:08;;;;;;;3.47;2.10;;;12.80;99.90;;;;;;6211114;22;20019;-82
2023/10/08 04:06:28;;;;;;;4.40;2.33;;;12.80;99.90;;;;;;6237047;22;20442;-82
2023/10/08 04:14:18;;;;;;;3.47;2.22;;;12.80;99.90;;;;;;6237094;22;20353;-82
2023/10/08 04:16:43;;;;;;;4.53;2.33;;;12.80;99.90;;;;;;6210811;22;20015;-82
2023/10/08 04:19:10;;;;;;;6.75;2.45;;;12.80;99.90;;;;;;6211035;22;20089;-82
2023/10/08 04:21:42;;;;;;;5.47;1.77;;;12.80;99.90;;;;;;6236875;22;20016;-82
2023/10/08 04:24:08;;;;;;;1.83;1.52;;;12.80;99.90;;;;;;6235098;22;20012;-82
2023/10/08 04:26:35;;;;;;;6.05;1.50;;;12.70;99.90;;;;;;6210019;22;20035;-82
2023/10/08 04:29:06;;;;;;;2.00;1.45;;;12.80;99.90;;;;;;6210507;22;20425;-82
2023/10/08 04:31:43;;;;;;;3.65;1.42;;;12.70;99.90;;;;;;6211441;22;20086;-83
2023/10/08 04:34:16;;;;;;;2.85;1.83;;;12.70;99.90;;;;;;6210548;22;20468;-82
2023/10/08 04:36:45;;;;;;;6.10;2.00;;;12.70;99.90;;;;;;6211056;22;20602;-83
2023/10/08 04:39:14;;;;;;;2.35;1.65;;;12.70;99.90;;;;;;6210578;22;20028;-82
2023/10/08 04:41:42;;;;;;;5.22;2.05;;;12.70;99.90;;;;;;6238284;22;20008;-82
2023/10/08 04:44:16;;;;;;;3.00;1.58;;;12.80;99.90;;;;;;6212596;22;20306;-82
2023/10/08 04:46:46;;;;;;;3.58;1.90;;;12.80;99.90;;;;;;6212747;22;20031;-82
2023/10/08 04:49:28;;;;;;;5.45;1.80;;;12.80;99.90;;;;;;6239774;22;20016;-89
2023/10/08 04:51:59;;;;;;;4.65;1.75;;;12.70;99.90;;;;;;6214691;22;20297;-88
2023/10/08 04:54:31;;;;;;;2.60;1.75;;;12.80;99.90;;;;;;6240353;22;20020;-90
2023/10/08 04:57:01;;;;;;;6.65;1.70;;;12.80;99.90;;;;;;6264381;22;20020;-89
2023/10/08 04:59:36;;;;;;;3.75;1.92;;;12.80;99.90;;;;;;6240825;22;20349;-88
2023/10/08 05:02:34;;;;;;;4.57;1.60;;;12.80;99.90;;;;;;6239567;22;20023;-89
2023/10/08 05:19:24;;;;;;;2.25;1.70;;;12.80;99.90;;;;;;6244710;22;20023;-82
2023/10/08 05:22:01;;;;;;;4.10;1.88;;;12.80;99.90;;;;;;6241870;22;20050;-82
2023/10/08 05:24:51;;;;;;;3.67;1.95;;;12.70;99.90;;;;;;6267462;22;20018;-82
2023/10/08 05:59:39;;;;;;;2.40;1.75;;;12.70;99.90;;;;;;6263288;22;20253;-89
2023/10/08 06:02:28;;;;;;;2.83;1.70;;;12.70;99.90;;;;;;6236272;22;20053;-89
2023/10/08 06:13:05;;;;;;;4.93;1.88;;;12.80;99.90;;;;;;6263839;22;20425;-89
2023/10/08 06:15:48;;;;;;;4.47;1.90;;;12.80;99.90;;;;;;6238649;22;20019;-89
2023/10/08 06:18:28;;;;;;;2.97;1.90;;;12.80;99.90;;;;;;6237077;22;20051;-88
2023/10/08 06:20:58;;;;;;;5.68;1.88;;;12.80;99.90;;;;;;6237697;22;20011;-89
2023/10/08 06:23:25;;;;;;;3.85;1.80;;;12.80;99.90;;;;;;6261902;22;20012;-89
2023/10/08 06:25:58;;;;;;;5.50;1.98;;;12.80;99.90;;;;;;6238985;22;20012;-88
2023/10/08 06:28:25;;;;;;;3.55;1.60;;;12.80;99.90;;;;;;6237637;22;20055;-89
2023/10/08 06:30:56;;;;;;;2.47;1.60;;;12.90;99.90;;;;;;6238255;22;20160;-89
2023/10/08 06:33:30;;;;;;;4.32;1.80;;;12.90;99.90;;;;;;6237644;22;20023;-89
2023/10/08 06:36:02;;;;;;;2.90;1.50;;;12.90;99.90;;;;;;6264092;22;20034;-88
2023/10/08 06:38:32;;;;;;;3.20;1.60;;;13.00;99.90;;;;;;6238133;22;20318;-89
2023/10/08 06:41:10;;;;;;;3.03;1.83;;;13.00;99.90;;;;;;6239923;22;20022;-89
2023/10/08 06:43:37;;;;;;;4.78;2.10;;;13.00;99.90;;;;;;6239185;22;20016;-89
2023/10/08 06:46:07;;;;;;;4.03;1.92;;;13.00;99.90;;;;;;6238191;22;20012;-89
2023/10/08 06:48:34;;;;;;;4.85;1.80;;;13.10;99.90;;;;;;6238149;22;20037;-89
2023/10/08 06:51:07;;;;;;;4.85;2.00;;;13.20;99.90;;;;;;6238610;22;20094;-88
2023/10/08 06:53:34;;;;;;;5.10;1.75;;;13.20;99.90;;;;;;6237496;22;20011;-89
2023/10/08 06:56:05;;;;;;;4.50;1.90;;;13.30;99.90;;;;;;6238597;22;20061;-89
2023/10/08 06:58:34;;;;;;;4.22;2.00;;;13.40;99.90;;;;;;6236274;22;20012;-89
2023/10/08 07:01:08;;;;;;;4.80;2.38;;;13.40;99.90;;;;;;6238895;22;20019;-89
2023/10/08 07:03:35;;;;;;;4.40;2.20;;;13.40;99.90;;;;;;6237073;22;20142;-89
2023/10/08 07:06:16;;;;;;;3.17;1.90;;;13.40;99.90;;;;;;6239375;22;20031;-89
2023/10/08 07:08:46;;;;;;;3.72;1.98;;;13.50;99.90;;;;;;6236513;22;20363;-88
2023/10/08 07:11:13;;;;;;;5.32;2.05;;;13.60;99.90;;;;;;6238466;22;20019;-89
2023/10/08 07:13:40;;;;;;;5.22;2.30;;;13.60;99.90;;;;;;6237767;22;20019;-89
2023/10/08 07:16:11;;;;;;;6.60;2.03;;;13.70;99.90;;;;;;6238260;22;20042;-89
2023/10/08 07:18:52;;;;;;;4.55;2.22;;;13.80;99.90;;;;;;6263813;22;20023;-89
2023/10/08 07:21:29;;;;;;;3.75;2.05;;;13.90;99.90;;;;;;6238643;22;20117;-89
2023/10/08 07:23:59;;;;;;;6.70;2.38;;;14.00;99.90;;;;;;6262136;22;20029;-89
2023/10/08 07:26:39;;;;;;;3.65;1.80;;;14.00;99.90;;;;;;6238353;22;20076;-89
2023/10/08 07:29:09;;;;;;;4.20;1.50;;;14.00;99.90;;;;;;6238175;22;20026;-89
2023/10/08 07:31:36;;;;;;;3.72;1.50;;;13.90;99.90;;;;;;6237870;22;20015;-89
2023/10/08 07:34:16;;;;;;;4.80;1.98;;;13.90;99.90;;;;;;6237702;22;20027;-90
2023/10/08 07:36:43;;;;;;;6.18;1.65;;;13.90;99.90;;;;;;6238401;22;20016;-89
2023/10/08 07:39:22;;;;;;;6.25;1.60;;;13.90;99.90;;;;;;6262415;22;20057;-89
2023/10/08 07:41:48;;;;;;;5.22;1.80;;;14.00;99.90;;;;;;6237299;22;20054;-89
2023/10/08 07:44:13;;;;;;;5.78;1.77;;;14.10;99.90;;;;;;6264861;22;20023;-89
2023/10/08 07:46:39;;;;;;;5.30;1.30;;;14.10;99.90;;;;;;6238458;22;20032;-89
2023/10/08 07:49:05;;;;;;;4.30;1.30;;;14.20;99.90;;;;;;6239232;22;20016;-89
2023/10/08 07:51:31;;;;;;;10.43;1.60;;;14.00;99.90;;;;;;6239266;22;20046;-89
2023/10/08 07:53:56;;;;;;;5.00;1.30;;;14.00;99.90;;;;;;6263112;22;20027;-89
2023/10/08 07:56:23;;;;;;;9.60;1.80;;;14.10;99.90;;;;;;6238698;22;20039;-89
2023/10/08 07:58:55;;;;;;;5.97;1.35;;;14.30;99.90;;;;;;6263313;22;20378;-89
2023/10/08 08:01:24;;;;;;;5.47;1.63;;;14.30;99.90;;;;;;6238499;22;20012;-88
2023/10/08 08:03:50;;;;;;;5.45;1.50;;;14.40;99.90;;;;;;6238941;22;20087;-89
2023/10/08 08:06:16;;;;;;;7.10;1.55;;;14.40;99.90;;;;;;6238753;22;20064;-89
2023/10/08 08:08:44;;;;;;;6.35;1.30;;;14.40;99.90;;;;;;6238629;22;20118;-89
2023/10/08 08:11:17;;;;;;;5.10;1.60;;;14.40;99.90;;;;;;6266080;22;20421;-89
2023/10/08 08:13:46;;;;;;;5.78;1.73;;;14.40;99.90;;;;;;6240434;22;20187;-89
2023/10/08 08:16:16;;;;;;;5.70;1.70;;;14.30;99.90;;;;;;6240550;22;20093;-89
2023/10/08 08:18:51;;;;;;;4.18;1.20;;;14.20;99.90;;;;;;6265197;22;20072;-89
2023/10/08 08:21:19;;;;;;;5.35;1.30;;;14.40;99.90;;;;;;6266904;22;20011;-89
2023/10/08 08:23:48;;;;;;;4.07;1.42;;;14.40;99.90;;;;;;6239316;22;20089;-89
2023/10/08 08:26:39;;;;;;;6.97;1.90;;;14.50;99.90;;;;;;6240489;22;20091;-88
2023/10/08 08:29:08;;;;;;;6.90;1.20;;;14.60;99.90;;;;;;6240663;22;20015;-89
2023/10/08 08:31:35;;;;;;;3.00;1.00;;;14.50;99.90;;;;;;6240246;22;20042;-89
2023/10/08 08:34:03;;;;;;;6.65;1.40;;;14.70;99.90;;;;;;6241475;22;20015;-90
2023/10/08 08:36:31;;;;;;;4.55;1.80;;;14.70;99.90;;;;;;6241109;22;20039;-88
2023/10/08 08:38:57;;;;;;;5.40;1.30;;;14.80;99.90;;;;;;6264117;22;20018;-89
2023/10/08 08:41:24;;;;;;;5.63;0.93;;;14.90;99.90;;;;;;6239357;22;20051;-88
2023/10/08 08:44:06;;;;;;;4.88;1.48;;;14.90;99.90;;;;;;6264772;22;20043;-90
2023/10/08 08:46:37;;;;;;;2.97;1.00;;;14.90;99.90;;;;;;6239475;22;20031;-89
2023/10/08 08:49:07;;;;;;;5.32;1.08;;;15.00;99.90;;;;;;6264584;22;20016;-89
2023/10/08 08:51:34;;;;;;;3.05;0.90;;;14.90;99.90;;;;;;6240093;22;20011;-89
2023/10/08 08:54:05;;;;;;;4.72;1.15;;;15.10;99.90;;;;;;6238586;22;20022;-89
2023/10/08 08:56:38;;;;;;;8.93;1.10;;;15.00;99.90;;;;;;6240996;22;20336;-88
2023/10/08 08:59:04;;;;;;;4.53;1.15;;;15.30;99.90;;;;;;6239412;22;20016;-88
2023/10/08 09:01:32;;;;;;;4.75;1.45;;;15.40;99.90;;;;;;6239854;22;20023;-89
2023/10/08 09:04:05;;;;;;;4.28;1.08;;;15.50;99.90;;;;;;6239212;22;20015;-88
2023/10/08 09:06:32;;;;;;;6.18;1.45;;;15.30;99.90;;;;;;6265896;22;20012;-88
2023/10/08 09:09:21;;;;;;;7.35;1.25;;;15.30;99.90;;;;;;6239361;22;20419;-89
2023/10/08 09:11:51;;;;;;;2.63;0.88;;;15.50;99.90;;;;;;6264203;22;20219;-89
2023/10/08 09:14:27;;;;;;;8.15;1.27;;;15.40;99.90;;;;;;6240408;22;20011;-89
2023/10/08 09:16:54;;;;;;;4.22;1.10;;;15.40;99.90;;;;;;6265871;22;20479;-89
2023/10/08 09:19:22;;;;;;;8.75;1.08;;;15.60;99.90;;;;;;6239156;22;20019;-89
2023/10/08 09:22:07;;;;;;;5.97;1.67;;;15.70;99.90;;;;;;6240255;22;20444;-89
2023/10/08 09:24:36;;;;;;;3.75;1.02;;;15.80;99.90;;;;;;6239943;22;20019;-89
2023/10/08 09:27:15;;;;;;;6.68;1.60;;;15.60;99.90;;;;;;6239251;22;20018;-89
2023/10/08 09:29:41;;;;;;;5.38;1.50;;;15.80;99.90;;;;;;6240656;22;20018;-89
2023/10/08 09:32:23;;;;;;;6.68;1.30;;;15.80;99.90;;;;;;6238594;22;20047;-89
2023/10/08 09:34:50;;;;;;;5.85;1.45;;;15.80;99.90;;;;;;6240001;22;20014;-89
2023/10/08 09:37:17;;;;;;;5.20;1.48;;;16.10;99.90;;;;;;6239097;22;20030;-89
2023/10/08 09:39:45;;;;;;;4.70;1.58;;;16.30;99.90;;;;;;6266176;22;20007;-89
2023/10/08 09:42:13;;;;;;;5.03;1.35;;;16.40;99.90;;;;;;6264793;22;20015;-89
2023/10/08 09:44:39;;;;;;;6.32;2.10;;;16.40;99.90;;;;;;6240351;22;20016;-89
2023/10/08 09:47:06;;;;;;;2.65;1.35;;;16.40;99.90;;;;;;6214243;22;20023;-89
2023/10/08 09:49:33;;;;;;;4.13;1.00;;;16.50;99.90;;;;;;6239947;22;20082;-89
2023/10/08 09:52:06;;;;;;;4.13;1.50;;;16.70;99.90;;;;;;6238627;22;20280;-88
2023/10/08 09:54:46;;;;;;;5.50;1.23;;;16.40;99.90;;;;;;6237976;22;20015;-88
2023/10/08 09:57:12;;;;;;;3.67;1.27;;;16.50;99.90;;;;;;6212196;22;20019;-89
2023/10/08 09:59:40;;;;;;;4.65;1.45;;;16.50;99.90;;;;;;6213517;22;20022;-88
2023/10/08 10:02:09;;;;;;;2.92;1.65;;;16.70;99.90;;;;;;6238615;22;20043;-89
2023/10/08 10:04:35;;;;;;;4.60;1.00;;;16.70;99.90;;;;;;6239938;22;20023;-89
2023/10/08 10:07:14;;;;;;;2.72;1.15;;;16.40;99.90;;;;;;6213177;22;20493;-89
2023/10/08 10:09:44;;;;;;;1.73;0.80;;;16.60;99.90;;;;;;6213240;22;20008;-89
2023/10/08 10:12:11;;;;;;;6.85;1.33;;;17.00;99.90;;;;;;6237806;22;20047;-88
2023/10/08 10:14:46;;;;;;;4.53;1.35;;;17.50;99.90;;;;;;6239432;22;20018;-87
2023/10/08 10:17:20;;;;;;;4.20;1.30;;;17.40;99.90;;;;;;6239041;22;20018;-88
2023/10/08 10:19:59;;;;;;;8.77;1.35;;;17.50;99.90;;;;;;6214290;22;20016;-89
2023/10/08 10:22:35;;;;;;;6.20;1.48;;;17.70;99.90;;;;;;6237901;22;20012;-88
2023/10/08 10:25:14;;;;;;;2.33;0.98;;;18.00;99.90;;;;;;6212830;22;20050;-88
2023/10/08 10:28:04;;;;;;;3.88;1.30;;;17.90;99.90;;;;;;6238916;22;20016;-89
2023/10/08 10:30:30;;;;;;;5.60;1.02;;;17.30;99.90;;;;;;6201776;22;20054;-89
2023/10/08 10:32:59;;;;;;;6.30;1.50;;;17.40;99.90;;;;;;6213741;22;20015;-88
2023/10/08 10:35:27;;;;;;;5.63;1.20;;;17.40;99.90;;;;;;6239044;22;20038;-88
2023/10/08 10:37:55;;;;;;;8.07;1.50;;;17.70;99.90;;;;;;6212056;22;20012;-88
2023/10/08 10:41:23;;;;;;;4.57;1.25;;;17.80;99.90;;;;;;6239453;22;20008;-89
2023/10/08 10:43:20;;;;;;;3.63;1.35;;;17.80;99.90;;;;;;6223969;22;20086;-88
2023/10/08 10:45:47;;;;;;;6.05;1.25;;;17.50;99.90;;;;;;6238044;22;20523;-87
2023/10/08 10:53:26;;;;;;;4.47;1.80;;;17.70;99.90;;;;;;6237960;22;20023;-88
2023/10/08 10:56:09;;;;;;;6.18;1.35;;;18.00;99.90;;;;;;6237892;22;20046;-89
2023/10/08 10:58:39;;;;;;;7.38;1.45;;;18.30;99.90;;;;;;6211458;22;20069;-87
2023/10/08 11:01:21;;;;;;;4.85;1.35;;;18.50;99.90;;;;;;6237150;22;20115;-86
2023/10/08 11:03:52;;;;;;;7.45;1.45;;;18.20;99.90;;;;;;6235700;22;20026;-87
2023/10/08 11:06:22;;;;;;;5.20;1.55;;;17.90;99.90;;;;;;6211642;22;20008;-88
2023/10/08 11:08:56;;;;;;;5.78;1.30;;;18.20;99.90;;;;;;6235048;22;20154;-88
2023/10/08 11:11:30;;;;;;;8.20;1.40;;;18.20;99.90;;;;;;6236833;22;20440;-88
2023/10/08 11:14:00;;;;;;;6.68;1.17;;;18.80;99.90;;;;;;6211295;22;20020;-86
2023/10/08 11:16:26;;;;;;;6.13;1.27;;;18.60;99.90;;;;;;6236334;22;20031;-87
2023/10/08 11:18:57;;;;;;;3.60;1.10;;;18.40;99.90;;;;;;6211141;22;20360;-87
2023/10/08 11:21:24;;;;;;;7.65;1.50;;;18.20;99.90;;;;;;6237021;22;20014;-86
2023/10/08 11:23:59;;;;;;;6.30;1.52;;;18.20;99.90;;;;;;6236068;22;20023;-87
2023/10/08 11:26:38;;;;;;;6.20;1.23;;;18.30;99.90;;;;;;6211678;22;20012;-86
2023/10/08 11:29:13;;;;;;;5.43;1.77;;;18.80;99.90;;;;;;6211296;22;20359;-87
2023/10/08 11:31:40;;;;;;;5.35;0.98;;;18.50;99.90;;;;;;6236180;22;20026;-87
2023/10/08 11:34:08;;;;;;;6.72;1.55;;;18.00;99.90;;;;;;6236624;22;20019;-87
2023/10/08 11:36:48;;;;;;;6.43;1.25;;;18.40;99.90;;;;;;6237208;22;20071;-87
2023/10/08 11:39:21;;;;;;;7.50;1.70;;;18.40;99.90;;;;;;6235388;22;20024;-87
2023/10/08 11:42:03;;;;;;;6.40;1.17;;;18.50;99.90;;;;;;6235233;22;20007;-87
2023/10/08 11:44:35;;;;;;;8.95;2.00;;;18.50;99.90;;;;;;6236322;22;20240;-87
2023/10/08 11:47:12;;;;;;;6.72;1.95;;;18.70;99.90;;;;;;6181015;22;20015;-87
2023/10/08 11:49:46;;;;;;;7.03;1.10;;;18.80;99.90;;;;;;6235787;22;20047;-87
2023/10/08 11:52:15;;;;;;;5.22;1.27;;;18.60;99.90;;;;;;6235478;22;20112;-87
2023/10/08 11:54:42;;;;;;;4.63;1.17;;;18.80;99.90;;;;;;6236439;22;20337;-87
2023/10/08 11:57:09;;;;;;;5.70;1.10;;;18.60;99.90;;;;;;6210408;22;20012;-87
2023/10/08 11:59:39;;;;;;;8.02;1.20;;;18.50;99.90;;;;;;6210822;22;20047;-87
2023/10/08 12:02:06;;;;;;;5.88;1.58;;;18.30;99.90;;;;;;6210178;22;20027;-86
2023/10/08 12:04:31;;;;;;;3.75;1.20;;;18.50;99.90;;;;;;6211682;22;20069;-88
2023/10/08 12:07:01;;;;;;;6.00;1.42;;;18.50;99.90;;;;;;6235464;22;20007;-87
2023/10/08 12:09:27;;;;;;;6.82;1.33;;;18.60;99.90;;;;;;6210641;22;20011;-86
2023/10/08 12:11:53;;;;;;;5.03;1.40;;;18.60;99.90;;;;;;6210147;22;20011;-87
2023/10/08 12:14:19;;;;;;;4.45;1.40;;;18.70;99.90;;;;;;6236345;22;20058;-87
2023/10/08 12:16:45;;;;;;;7.40;1.20;;;18.50;99.90;;;;;;6236311;22;20016;-87
2023/10/08 12:19:17;;;;;;;7.03;1.80;;;18.20;99.90;;;;;;6235650;22;20571;-88
2023/10/08 12:21:47;;;;;;;8.18;1.58;;;18.60;99.90;;;;;;6211245;22;20482;-87
2023/10/08 12:24:14;;;;;;;7.57;1.83;;;18.40;99.90;;;;;;6209815;22;20023;-87
2023/10/08 12:26:49;;;;;;;5.03;1.00;;;18.70;99.90;;;;;;6235840;22;20328;-87
2023/10/08 12:29:17;;;;;;;6.35;1.83;;;18.60;99.90;;;;;;6210213;22;20543;-87
2023/10/08 12:31:47;;;;;;;4.57;0.98;;;18.80;99.90;;;;;;6210758;22;20051;-86
2023/10/08 12:34:13;;;;;;;7.72;1.50;;;18.90;99.90;;;;;;6210109;22;20432;-88
2023/10/08 12:36:42;;;;;;;5.47;1.42;;;19.20;99.90;;;;;;6236140;22;20008;-87
2023/10/08 12:39:14;;;;;;;5.38;1.42;;;19.30;99.90;;;;;;6234441;22;20089;-87
2023/10/08 12:41:43;;;;;;;2.97;1.20;;;19.10;99.90;;;;;;6210583;22;20377;-87
2023/10/08 12:44:09;;;;;;;5.20;1.10;;;18.90;99.90;;;;;;6236147;22;20016;-87
2023/10/08 12:46:36;;;;;;;3.50;1.23;;;19.30;99.90;;;;;;6209609;22;20122;-84
2023/10/08 12:49:02;;;;;;;3.33;1.08;;;19.80;99.90;;;;;;6209916;22;20053;-86
2023/10/08 12:51:32;;;;;;;8.50;1.63;;;19.80;99.90;;;;;;6236093;22;20023;-87
2023/10/08 12:54:03;;;;;;;5.93;1.52;;;19.90;99.90;;;;;;6209109;22;20019;-87
2023/10/08 12:56:35;;;;;;;5.20;1.30;;;19.70;99.90;;;;;;6235776;22;20024;-87
2023/10/08 12:59:05;;;;;;;6.68;1.27;;;19.80;99.90;;;;;;6234761;22;20020;-86
2023/10/08 13:01:32;;;;;;;7.75;1.25;;;20.10;99.90;;;;;;6237952;22;20459;-88
2023/10/08 13:04:00;;;;;;;4.18;1.13;;;20.10;99.90;;;;;;6211795;22;20018;-88
2023/10/08 13:06:30;;;;;;;6.70;1.80;;;20.30;99.90;;;;;;6237775;22;20012;-87
2023/10/08 13:09:09;;;;;;;3.72;0.85;;;20.70;99.90;;;;;;6210281;22;20123;-87
2023/10/08 13:11:35;;;;;;;5.50;1.70;;;20.60;99.90;;;;;;6237112;22;20019;-87
2023/10/08 13:14:00;;;;;;;2.60;1.10;;;21.10;99.90;;;;;;6211994;22;20093;-86
2023/10/08 13:16:31;;;;;;;9.15;1.10;;;21.10;99.90;;;;;;6212539;22;20431;-87
2023/10/08 13:18:58;;;;;;;5.25;1.55;;;20.60;99.90;;;;;;6236353;22;20553;-86
2023/10/08 13:21:25;;;;;;;5.93;1.30;;;21.00;99.90;;;;;;6212193;22;20008;-86
2023/10/08 13:23:51;;;;;;;11.48;1.48;;;21.10;99.90;;;;;;6234474;22;20038;-87
2023/10/08 13:26:17;;;;;;;11.95;1.38;;;21.30;99.90;;;;;;6210653;22;20012;-87
2023/10/08 13:28:44;;;;;;;9.13;1.52;;;21.40;99.90;;;;;;6235408;22;20016;-86
2023/10/08 13:31:10;;;;;;;6.88;1.30;;;20.90;99.90;;;;;;6236185;22;20020;-86
2023/10/08 13:33:42;;;;;;;6.93;1.85;;;21.10;99.90;;;;;;6211044;22;20015;-87
2023/10/08 13:36:13;;;;;;;3.83;1.00;;;21.10;99.90;;;;;;6236798;22;20026;-87
2023/10/08 13:38:40;;;;;;;5.45;1.58;;;20.40;99.90;;;;;;6209280;22;20015;-87
2023/10/08 13:41:17;;;;;;;4.32;0.93;;;20.40;99.90;;;;;;6237406;22;20111;-85
2023/10/08 13:43:47;;;;;;;9.73;1.58;;;20.20;99.90;;;;;;6211436;22;20016;-88
2023/10/08 13:46:19;;;;;;;5.78;1.00;;;20.10;99.90;;;;;;6237451;22;20020;-88
2023/10/08 13:48:49;;;;;;;5.70;1.02;;;19.50;99.90;;;;;;6211425;22;20019;-87
2023/10/08 13:51:20;;;;;;;4.07;1.02;;;19.10;99.90;;;;;;6237420;22;20047;-87
2023/10/08 13:53:53;;;;;;;4.32;1.20;;;19.50;99.90;;;;;;6235484;22;20015;-87
2023/10/08 13:56:30;;;;;;;6.45;1.42;;;19.40;99.90;;;;;;6212035;22;20167;-87
2023/10/08 13:59:12;;;;;;;6.13;1.13;;;19.60;99.90;;;;;;6210299;22;20027;-85
2023/10/08 14:01:43;;;;;;;6.05;1.48;;;19.40;99.90;;;;;;6211257;22;20022;-87
2023/10/08 14:04:09;;;;;;;6.60;1.30;;;19.00;99.90;;;;;;6236907;22;20098;-88
2023/10/08 14:06:41;;;;;;;3.22;1.13;;;18.50;99.90;;;;;;6237670;22;20342;-87
2023/10/08 14:09:11;;;;;;;3.20;1.38;;;18.70;99.90;;;;;;6234543;22;20077;-87
2023/10/08 14:11:37;;;;;;;4.43;1.15;;;18.80;99.90;;;;;;6210499;22;20095;-87
2023/10/08 14:14:07;;;;;;;4.80;1.83;;;18.70;99.90;;;;;;6210386;22;20398;-88
2023/10/08 14:16:37;;;;;;;3.65;1.08;;;18.40;99.90;;;;;;6210898;22;20073;-87
2023/10/08 14:19:05;;;;;;;7.97;1.40;;;18.40;99.90;;;;;;6235505;22;20188;-86
2023/10/08 14:21:31;;;;;;;6.10;1.13;;;18.20;99.90;;;;;;6211913;22;20046;-87